Time;durP1;ratioP1;P1;durP2;ratioP2;P2;SDS_P1;SDS_P2;PMS_P1;PMS_P2;Temp;Humidity;BMP_temperature;BMP_pressure;BME280_temperature;BME280_humidity;BME280_pressure;Samples;Min_cycle;Max_cycle;Signal;HPM_P1;HPM_P2
2022/12/04 00:00:39;;;;;;;18.90;10.37;;;5.80;99.90;;;;;;7393391;19;20633;-79
2022/12/04 00:03:05;;;;;;;16.43;9.63;;;6.00;99.90;;;;;;7394161;19;20134;-79
2022/12/04 00:05:31;;;;;;;17.33;10.27;;;5.90;99.90;;;;;;7393392;19;20146;-79
2022/12/04 00:07:56;;;;;;;17.57;10.00;;;5.90;99.90;;;;;;7393738;19;20566;-78
2022/12/04 00:10:22;;;;;;;16.67;10.03;;;6.00;99.90;;;;;;7392087;19;20135;-80
2022/12/04 00:12:48;;;;;;;15.97;9.73;;;6.00;99.90;;;;;;7395767;19;20568;-79
2022/12/04 00:15:14;;;;;;;16.10;9.63;;;5.90;99.90;;;;;;7394289;19;20146;-79
2022/12/04 00:17:40;;;;;;;19.03;10.20;;;5.90;99.90;;;;;;7393980;19;20134;-79
2022/12/04 00:20:09;;;;;;;18.50;10.53;;;5.90;99.90;;;;;;7398448;19;20708;-80
2022/12/04 00:22:34;;;;;;;18.80;10.17;;;5.90;99.90;;;;;;7402997;19;20690;-79
2022/12/04 00:25:00;;;;;;;17.13;9.77;;;5.90;99.90;;;;;;7400392;19;20218;-78
2022/12/04 00:27:26;;;;;;;17.43;10.00;;;5.90;99.90;;;;;;7402177;19;20237;-79
2022/12/04 00:29:51;;;;;;;15.90;10.13;;;5.90;99.90;;;;;;7399744;19;20536;-80
2022/12/04 00:32:17;;;;;;;16.03;9.43;;;5.80;99.90;;;;;;7401041;19;20143;-81
2022/12/04 00:34:43;;;;;;;15.07;9.77;;;5.90;99.90;;;;;;7401131;19;20150;-79
2022/12/04 00:37:11;;;;;;;16.10;9.50;;;5.90;99.90;;;;;;7399695;19;20154;-80
2022/12/04 00:39:37;;;;;;;16.53;9.70;;;5.90;99.90;;;;;;7402716;19;20161;-79
2022/12/04 00:42:03;;;;;;;15.80;9.83;;;5.90;99.90;;;;;;7400991;19;20674;-81
2022/12/04 00:44:32;;;;;;;15.83;9.50;;;5.90;99.90;;;;;;7397553;19;20150;-79
2022/12/04 00:46:58;;;;;;;15.63;9.37;;;6.00;99.90;;;;;;7399396;19;20139;-80
2022/12/04 00:49:26;;;;;;;15.00;9.33;;;6.00;99.90;;;;;;7398118;19;20621;-80
2022/12/04 00:51:52;;;;;;;15.73;9.00;;;6.00;99.90;;;;;;7402406;19;20142;-79
2022/12/04 00:54:17;;;;;;;17.53;9.73;;;5.80;99.90;;;;;;7400939;19;20143;-80
2022/12/04 00:56:43;;;;;;;17.53;10.23;;;5.80;99.90;;;;;;7401749;19;20134;-79
2022/12/04 00:59:09;;;;;;;16.37;9.77;;;5.90;99.90;;;;;;7400862;19;20243;-79
2022/12/04 01:01:35;;;;;;;18.63;9.90;;;5.90;99.90;;;;;;7402151;19;20134;-79
2022/12/04 01:04:01;;;;;;;15.90;9.20;;;5.90;99.90;;;;;;7401847;19;20134;-79
2022/12/04 01:06:30;;;;;;;15.23;9.17;;;5.70;99.90;;;;;;7399607;19;20587;-78
2022/12/04 01:09:01;;;;;;;15.93;9.13;;;5.80;99.90;;;;;;7400806;19;20140;-79
2022/12/04 01:11:28;;;;;;;16.57;8.90;;;6.00;99.90;;;;;;7400093;19;20137;-79
2022/12/04 01:13:55;;;;;;;15.30;9.13;;;6.00;99.90;;;;;;7400339;19;20154;-79
2022/12/04 01:16:25;;;;;;;17.33;8.73;;;6.00;99.90;;;;;;7402208;19;20146;-79
2022/12/04 01:18:52;;;;;;;15.67;9.37;;;5.90;99.90;;;;;;7398961;19;20198;-80
2022/12/04 01:21:22;;;;;;;14.10;8.20;;;5.90;99.90;;;;;;7399585;19;20484;-80
2022/12/04 01:23:48;;;;;;;14.13;8.53;;;5.90;99.90;;;;;;7399253;19;20158;-81
2022/12/04 01:26:14;;;;;;;16.37;9.63;;;6.00;99.90;;;;;;7397142;19;20174;-80
2022/12/04 01:28:39;;;;;;;17.53;9.63;;;5.90;99.90;;;;;;7398063;19;20455;-80
2022/12/04 01:31:12;;;;;;;17.97;9.67;;;6.00;99.90;;;;;;7395975;19;20150;-78
2022/12/04 01:33:39;;;;;;;16.50;9.30;;;6.00;99.90;;;;;;7397947;19;20178;-79
2022/12/04 01:36:08;;;;;;;16.70;9.67;;;5.90;99.90;;;;;;7398215;19;20492;-80
2022/12/04 01:38:35;;;;;;;15.90;9.73;;;6.00;99.90;;;;;;7399240;19;20146;-79
2022/12/04 01:41:09;;;;;;;17.67;9.53;;;6.00;99.90;;;;;;7398949;19;20155;-80
2022/12/04 01:43:37;;;;;;;15.00;9.00;;;5.80;99.90;;;;;;7398140;19;20161;-79
2022/12/04 01:46:04;;;;;;;13.17;8.33;;;5.50;99.90;;;;;;7398432;19;20130;-79
2022/12/04 01:48:43;;;;;;;16.40;9.20;;;5.40;99.90;;;;;;7398912;19;20134;-79
2022/12/04 01:51:08;;;;;;;15.90;8.63;;;5.60;99.90;;;;;;7397542;19;20604;-80
2022/12/04 01:53:37;;;;;;;14.53;9.03;;;5.60;99.90;;;;;;7397789;19;20204;-79
2022/12/04 01:56:04;;;;;;;15.80;8.63;;;5.70;99.90;;;;;;7397115;19;20150;-78
2022/12/04 01:58:33;;;;;;;15.27;9.17;;;5.90;99.90;;;;;;7398640;19;20142;-80
2022/12/04 02:01:03;;;;;;;14.37;8.77;;;5.80;99.90;;;;;;7398638;19;20139;-79
2022/12/04 02:03:29;;;;;;;16.67;9.40;;;5.90;99.90;;;;;;7399108;19;20607;-78
2022/12/04 02:05:55;;;;;;;13.60;8.73;;;6.00;99.90;;;;;;7397618;19;20158;-80
2022/12/04 02:08:21;;;;;;;14.40;8.90;;;6.10;99.90;;;;;;7400167;19;20608;-78
2022/12/04 02:11:02;;;;;;;15.10;9.43;;;6.10;99.90;;;;;;7395759;19;20234;-79
2022/12/04 02:13:36;;;;;;;14.40;8.50;;;6.00;99.90;;;;;;7398899;19;20141;-79
2022/12/04 02:16:45;;;;;;;15.23;8.57;;;6.00;99.90;;;;;;7397250;19;20198;-80
2022/12/04 02:19:44;;;;;;;16.13;8.80;;;6.00;99.90;;;;;;7395373;19;20150;-79
2022/12/04 02:22:36;;;;;;;15.53;9.13;;;6.00;99.90;;;;;;7400063;19;20183;-79
2022/12/04 02:25:46;;;;;;;16.70;9.20;;;5.90;99.90;;;;;;7396495;19;20147;-79
2022/12/04 02:28:26;;;;;;;15.37;8.67;;;5.60;99.90;;;;;;7398715;19;20150;-80
2022/12/04 02:30:58;;;;;;;15.97;9.37;;;5.80;99.90;;;;;;7397614;19;20157;-78
2022/12/04 02:33:43;;;;;;;15.00;8.50;;;5.90;99.90;;;;;;7397524;19;20229;-80
2022/12/04 02:36:17;;;;;;;14.50;8.73;;;5.90;99.90;;;;;;7394985;19;20159;-78
2022/12/04 02:38:52;;;;;;;17.13;9.67;;;5.90;99.90;;;;;;7397549;19;20146;-79
2022/12/04 02:41:28;;;;;;;17.57;9.60;;;6.00;99.90;;;;;;7397956;19;20188;-79
2022/12/04 02:44:11;;;;;;;17.00;9.73;;;6.00;99.90;;;;;;7395237;19;20197;-79
2022/12/04 02:46:41;;;;;;;14.30;8.37;;;5.80;99.90;;;;;;7393988;19;20273;-79
2022/12/04 02:49:14;;;;;;;14.40;9.47;;;5.90;99.90;;;;;;7397414;19;20556;-79
2022/12/04 02:51:43;;;;;;;16.63;10.07;;;6.10;99.90;;;;;;7396384;19;20238;-78
2022/12/04 02:54:41;;;;;;;17.60;10.10;;;6.00;99.90;;;;;;7393918;19;20143;-79
2022/12/04 02:57:12;;;;;;;17.47;9.47;;;6.00;99.90;;;;;;7396409;19;20150;-79
2022/12/04 02:59:41;;;;;;;14.07;9.50;;;5.60;99.90;;;;;;7394684;19;20151;-78
2022/12/04 03:02:16;;;;;;;17.07;9.70;;;5.50;99.90;;;;;;7396011;19;20139;-79
2022/12/04 03:04:45;;;;;;;15.87;9.90;;;5.70;99.90;;;;;;7397181;19;20162;-77
2022/12/04 03:07:16;;;;;;;18.57;9.90;;;5.90;99.90;;;;;;7396898;19;20130;-79
2022/12/04 03:09:51;;;;;;;15.30;9.47;;;6.00;99.90;;;;;;7395020;19;20150;-77
2022/12/04 03:12:48;;;;;;;18.17;10.37;;;6.10;99.90;;;;;;7398193;19;20149;-79
2022/12/04 03:15:20;;;;;;;15.90;9.63;;;5.90;99.90;;;;;;7397721;19;20134;-79
2022/12/04 03:18:07;;;;;;;15.53;9.37;;;6.00;99.90;;;;;;7397622;19;20157;-78
2022/12/04 03:20:35;;;;;;;14.97;9.70;;;6.00;99.90;;;;;;7396283;19;20142;-78
2022/12/04 03:23:09;;;;;;;17.93;10.50;;;6.00;99.90;;;;;;7396339;19;20150;-79
2022/12/04 03:25:42;;;;;;;17.73;10.77;;;6.00;99.90;;;;;;7395874;19;20138;-80
2022/12/04 03:28:19;;;;;;;15.40;9.60;;;6.10;99.90;;;;;;7397919;19;20155;-79
2022/12/04 03:30:53;;;;;;;16.30;9.97;;;6.00;99.90;;;;;;7394220;19;20138;-80
2022/12/04 03:33:26;;;;;;;17.90;10.63;;;6.10;99.90;;;;;;7395521;19;20131;-79
2022/12/04 03:35:58;;;;;;;18.50;10.33;;;6.20;99.90;;;;;;7395754;19;20135;-80
2022/12/04 03:38:41;;;;;;;16.83;10.53;;;6.10;99.90;;;;;;7395178;19;20499;-79
2022/12/04 03:41:51;;;;;;;18.57;10.23;;;6.10;99.90;;;;;;7397083;19;20138;-79
2022/12/04 03:44:22;;;;;;;15.43;10.63;;;5.90;99.90;;;;;;7393009;19;20186;-80
2022/12/04 03:47:01;;;;;;;17.13;10.63;;;6.00;99.90;;;;;;7391727;19;20150;-79
2022/12/04 03:49:32;;;;;;;16.93;10.23;;;5.80;99.90;;;;;;7391736;19;20146;-79
2022/12/04 03:52:21;;;;;;;15.17;9.33;;;5.70;99.90;;;;;;7391208;19;20141;-79
2022/12/04 03:54:52;;;;;;;19.40;10.93;;;5.70;99.90;;;;;;7391187;19;20249;-79
2022/12/04 03:57:24;;;;;;;18.20;11.27;;;5.90;99.90;;;;;;7397025;19;20134;-79
2022/12/04 04:00:16;;;;;;;18.27;11.77;;;5.90;99.90;;;;;;7394175;19;20138;-79
2022/12/04 04:03:10;;;;;;;17.33;10.63;;;5.80;99.90;;;;;;7394615;19;20238;-79
2022/12/04 04:05:40;;;;;;;18.00;10.67;;;5.90;99.90;;;;;;7394119;19;20154;-79
2022/12/04 04:08:26;;;;;;;17.10;11.00;;;6.00;99.90;;;;;;7394464;19;20135;-80
2022/12/04 04:11:28;;;;;;;16.23;10.73;;;6.00;99.90;;;;;;7394520;19;20151;-79
2022/12/04 04:25:17;;;;;;;20.03;11.70;;;6.00;99.90;;;;;;7393398;19;20250;-80
2022/12/04 04:27:51;;;;;;;20.40;11.40;;;6.00;99.90;;;;;;7393691;19;20142;-80
2022/12/04 04:30:18;;;;;;;17.03;10.67;;;5.80;99.90;;;;;;7392165;19;20239;-80
2022/12/04 04:33:04;;;;;;;20.57;11.07;;;5.90;99.90;;;;;;7394612;19;20231;-80
2022/12/04 04:35:51;;;;;;;19.90;11.90;;;5.90;99.90;;;;;;7394647;19;20131;-79
2022/12/04 04:38:24;;;;;;;18.33;10.90;;;6.00;99.90;;;;;;7394819;19;20151;-81
2022/12/04 04:41:00;;;;;;;17.87;9.90;;;6.00;99.90;;;;;;7395049;19;20139;-79
2022/12/04 04:44:07;;;;;;;20.87;11.50;;;6.00;99.90;;;;;;7393347;19;20150;-80
2022/12/04 04:46:37;;;;;;;18.10;11.20;;;5.70;99.90;;;;;;7390640;19;20650;-79
2022/12/04 04:49:07;;;;;;;16.40;9.83;;;5.70;99.90;;;;;;7394671;19;20147;-79
2022/12/04 04:51:34;;;;;;;17.13;10.27;;;5.10;99.90;;;;;;7393599;19;20154;-80
2022/12/04 04:54:05;;;;;;;17.80;10.70;;;5.10;99.90;;;;;;7393418;19;20572;-80
2022/12/04 04:56:31;;;;;;;17.87;10.33;;;5.50;99.90;;;;;;7391135;19;20507;-79
2022/12/04 04:58:57;;;;;;;18.20;10.47;;;5.70;99.90;;;;;;7392874;19;20206;-78
2022/12/04 05:01:26;;;;;;;18.50;10.47;;;5.80;99.90;;;;;;7392166;19;20203;-80
2022/12/04 05:03:52;;;;;;;16.53;9.70;;;5.70;99.90;;;;;;7392494;19;20222;-79
2022/12/04 05:06:18;;;;;;;17.37;9.13;;;5.80;99.90;;;;;;7398900;19;20142;-79
2022/12/04 05:08:44;;;;;;;15.43;9.47;;;5.90;99.90;;;;;;7399494;19;20146;-79
2022/12/04 05:11:14;;;;;;;16.00;9.27;;;5.90;99.90;;;;;;7400224;19;20158;-79
2022/12/04 05:13:41;;;;;;;18.67;10.20;;;5.80;99.90;;;;;;7401347;19;20567;-80
2022/12/04 05:16:10;;;;;;;18.23;9.20;;;5.90;99.90;;;;;;7398233;19;20151;-79
2022/12/04 05:18:36;;;;;;;17.07;9.13;;;5.90;99.90;;;;;;7401731;19;20150;-79
2022/12/04 05:21:07;;;;;;;18.03;9.87;;;6.00;99.90;;;;;;7399468;19;20149;-79
2022/12/04 05:23:34;;;;;;;15.93;9.40;;;5.90;99.90;;;;;;7399376;19;20149;-80
2022/12/04 05:26:04;;;;;;;16.00;10.03;;;5.90;99.90;;;;;;7400491;19;20202;-79
2022/12/04 05:28:30;;;;;;;14.27;8.53;;;6.00;99.90;;;;;;7400768;19;20142;-79
2022/12/04 05:30:58;;;;;;;15.80;9.53;;;6.00;99.90;;;;;;7396164;19;20634;-79
2022/12/04 05:33:23;;;;;;;17.40;9.57;;;5.90;99.90;;;;;;7398650;19;20142;-77
2022/12/04 05:36:05;;;;;;;15.53;9.67;;;6.00;99.90;;;;;;7398415;19;20625;-79
2022/12/04 05:38:34;;;;;;;16.00;8.97;;;6.00;99.90;;;;;;7399223;19;20138;-79
2022/12/04 05:41:01;;;;;;;17.70;10.40;;;5.70;99.90;;;;;;7398365;19;20135;-80
2022/12/04 05:43:27;;;;;;;15.77;9.07;;;5.80;99.90;;;;;;7396656;19;20173;-80
2022/12/04 05:45:53;;;;;;;16.90;9.17;;;6.00;99.90;;;;;;7398994;19;20182;-79
2022/12/04 05:48:19;;;;;;;15.10;8.90;;;5.50;99.90;;;;;;7399421;19;20131;-79
2022/12/04 05:50:46;;;;;;;16.73;9.23;;;5.60;99.90;;;;;;7396291;19;20190;-79
2022/12/04 05:53:11;;;;;;;13.77;8.70;;;5.80;99.90;;;;;;7399746;19;20246;-80
2022/12/04 05:55:37;;;;;;;15.63;9.10;;;5.50;99.90;;;;;;7396287;19;20166;-80
2022/12/04 05:58:03;;;;;;;14.07;8.50;;;5.70;99.90;;;;;;7398670;19;20558;-79
2022/12/04 06:00:32;;;;;;;15.43;8.50;;;5.80;99.90;;;;;;7397901;19;20137;-79
2022/12/04 06:02:58;;;;;;;13.20;8.40;;;5.80;99.90;;;;;;7398842;19;20131;-79
2022/12/04 06:05:23;;;;;;;15.87;9.23;;;5.90;99.90;;;;;;7399207;19;20164;-81
2022/12/04 06:07:49;;;;;;;17.00;9.20;;;5.90;99.90;;;;;;7398891;19;20155;-80
2022/12/04 06:10:15;;;;;;;15.13;8.80;;;5.80;99.90;;;;;;7397158;19;20167;-80
2022/12/04 06:12:41;;;;;;;13.00;8.00;;;5.00;99.90;;;;;;7397365;19;20134;-80
2022/12/04 06:15:07;;;;;;;13.63;8.30;;;5.30;99.90;;;;;;7396924;19;20142;-79
2022/12/04 06:17:33;;;;;;;17.23;8.67;;;5.60;99.90;;;;;;7395806;19;20134;-80
2022/12/04 06:19:59;;;;;;;14.40;9.10;;;5.60;99.90;;;;;;7398944;19;20158;-80
2022/12/04 06:22:24;;;;;;;15.20;9.23;;;5.60;99.90;;;;;;7396261;19;20155;-80
2022/12/04 06:24:50;;;;;;;17.63;9.73;;;5.70;99.90;;;;;;7396532;19;20131;-79
2022/12/04 06:27:16;;;;;;;15.27;9.07;;;5.90;99.90;;;;;;7397506;19;20138;-79
2022/12/04 06:29:42;;;;;;;16.17;9.33;;;5.90;99.90;;;;;;7395553;19;20139;-78
2022/12/04 06:32:07;;;;;;;14.97;8.43;;;5.90;99.90;;;;;;7397542;19;20256;-79
2022/12/04 06:34:34;;;;;;;15.13;8.67;;;5.80;99.90;;;;;;7396637;19;20553;-80
2022/12/04 06:37:00;;;;;;;15.90;9.17;;;5.90;99.90;;;;;;7396760;19;20145;-80
2022/12/04 06:39:25;;;;;;;16.83;9.57;;;5.80;99.90;;;;;;7394485;19;20127;-78
2022/12/04 06:41:53;;;;;;;14.53;8.33;;;6.00;99.90;;;;;;7399090;19;20127;-80
2022/12/04 06:44:19;;;;;;;14.57;8.73;;;5.90;99.90;;;;;;7395159;19;20170;-78
2022/12/04 06:46:44;;;;;;;16.67;8.73;;;6.00;99.90;;;;;;7396299;19;20648;-80
2022/12/04 06:49:10;;;;;;;15.73;8.40;;;5.90;99.90;;;;;;7395552;19;20178;-79
2022/12/04 06:51:38;;;;;;;15.13;8.77;;;6.00;99.90;;;;;;7397705;19;20802;-80
2022/12/04 06:54:04;;;;;;;17.70;9.43;;;5.90;99.90;;;;;;7397309;19;20198;-80
2022/12/04 06:56:32;;;;;;;16.03;8.60;;;5.90;99.90;;;;;;7393941;19;20687;-80
2022/12/04 06:59:00;;;;;;;16.13;9.50;;;5.60;99.90;;;;;;7398343;19;20139;-79
2022/12/04 07:01:29;;;;;;;15.70;8.87;;;5.70;99.90;;;;;;7396324;19;20168;-80
2022/12/04 07:03:56;;;;;;;14.77;8.83;;;5.80;99.90;;;;;;7395482;19;20139;-80
2022/12/04 07:06:24;;;;;;;16.83;9.20;;;5.80;99.90;;;;;;7396837;19;20158;-79
2022/12/04 07:08:53;;;;;;;14.93;8.93;;;5.80;99.90;;;;;;7397016;19;20161;-79
2022/12/04 07:11:21;;;;;;;17.73;9.27;;;5.80;99.90;;;;;;7395153;19;20147;-79
2022/12/04 07:13:47;;;;;;;15.47;8.93;;;5.90;99.90;;;;;;7393976;19;20154;-79
2022/12/04 07:16:15;;;;;;;16.87;8.90;;;5.90;99.90;;;;;;7395705;19;20138;-79
2022/12/04 07:18:41;;;;;;;13.97;8.37;;;5.60;99.90;;;;;;7394672;19;20174;-78
2022/12/04 07:21:14;;;;;;;15.93;9.20;;;5.70;99.90;;;;;;7395302;19;20130;-80
2022/12/04 07:23:40;;;;;;;16.90;9.10;;;5.80;99.90;;;;;;7395388;19;20162;-80
2022/12/04 07:26:11;;;;;;;15.13;8.60;;;5.70;99.90;;;;;;7393953;19;20231;-81
2022/12/04 07:28:38;;;;;;;15.83;8.60;;;5.60;99.90;;;;;;7394429;19;20155;-82
2022/12/04 07:31:05;;;;;;;15.40;8.47;;;5.70;99.90;;;;;;7391213;19;20142;-76
2022/12/04 07:33:31;;;;;;;13.53;8.50;;;5.90;99.90;;;;;;7392022;19;20141;-76
2022/12/04 07:35:58;;;;;;;14.67;8.90;;;5.90;99.90;;;;;;7392541;19;20209;-77
2022/12/04 07:38:23;;;;;;;16.00;8.57;;;5.90;99.90;;;;;;7391235;19;20130;-80
2022/12/04 07:40:49;;;;;;;17.37;8.87;;;5.90;99.90;;;;;;7389089;19;20605;-80
2022/12/04 07:43:15;;;;;;;15.63;9.27;;;5.50;99.90;;;;;;7389559;19;20171;-79
2022/12/04 07:45:41;;;;;;;16.57;9.00;;;5.50;99.90;;;;;;7389046;19;20620;-80
2022/12/04 07:48:06;;;;;;;14.90;8.73;;;5.30;99.90;;;;;;7389991;19;20152;-79
2022/12/04 07:50:32;;;;;;;17.73;9.63;;;5.60;99.90;;;;;;7390499;19;20194;-79
2022/12/04 07:52:58;;;;;;;17.97;10.23;;;5.80;99.90;;;;;;7390201;19;20754;-80
2022/12/04 07:55:23;;;;;;;16.73;9.27;;;5.90;99.90;;;;;;7390082;19;20811;-79
2022/12/04 07:57:49;;;;;;;13.53;8.23;;;5.90;99.90;;;;;;7390573;19;20146;-80
2022/12/04 08:00:15;;;;;;;15.10;8.90;;;5.90;99.90;;;;;;7391530;19;20192;-80
2022/12/04 08:02:41;;;;;;;17.77;10.00;;;5.70;99.90;;;;;;7389531;19;20606;-80
2022/12/04 08:05:07;;;;;;;15.90;9.23;;;5.60;99.90;;;;;;7387117;19;20131;-80
2022/12/04 08:07:33;;;;;;;16.57;9.03;;;5.20;99.90;;;;;;7390009;19;20134;-80
2022/12/04 08:09:59;;;;;;;15.70;9.40;;;5.20;99.90;;;;;;7388330;19;20139;-79
2022/12/04 08:12:24;;;;;;;19.10;9.30;;;5.60;99.90;;;;;;7392153;19;20134;-79
2022/12/04 08:14:50;;;;;;;15.77;9.57;;;5.60;99.90;;;;;;7391992;19;20580;-78
2022/12/04 08:17:16;;;;;;;13.53;9.03;;;5.80;99.90;;;;;;7391954;19;20199;-79
2022/12/04 08:19:43;;;;;;;18.80;9.80;;;6.00;99.90;;;;;;7389220;19;20134;-78
2022/12/04 08:22:08;;;;;;;15.83;8.93;;;6.10;99.90;;;;;;7386842;19;20135;-77
2022/12/04 08:24:34;;;;;;;17.73;9.80;;;6.00;99.90;;;;;;7386803;19;20146;-78
2022/12/04 08:27:00;;;;;;;17.17;8.60;;;5.70;99.90;;;;;;7388502;19;20141;-79
2022/12/04 08:29:26;;;;;;;17.73;9.67;;;5.90;99.90;;;;;;7387203;19;20146;-78
2022/12/04 08:31:52;;;;;;;15.47;8.77;;;6.00;99.90;;;;;;7392135;19;20622;-78
2022/12/04 08:34:17;;;;;;;14.87;8.40;;;5.70;99.90;;;;;;7391741;19;20130;-80
2022/12/04 08:36:43;;;;;;;15.17;9.13;;;5.70;99.90;;;;;;7390081;19;20157;-80
2022/12/04 08:39:10;;;;;;;14.67;8.37;;;5.90;99.90;;;;;;7390195;19;20150;-77
2022/12/04 08:41:37;;;;;;;16.33;8.77;;;5.60;99.90;;;;;;7397134;19;20226;-78
2022/12/04 08:44:03;;;;;;;16.27;8.63;;;5.80;99.90;;;;;;7395388;19;20170;-78
2022/12/04 08:46:29;;;;;;;13.97;8.57;;;5.60;99.90;;;;;;7394507;19;20168;-78
2022/12/04 08:48:55;;;;;;;13.60;7.97;;;5.60;99.90;;;;;;7397341;19;20636;-79
2022/12/04 08:51:23;;;;;;;14.87;8.47;;;6.00;99.90;;;;;;7396558;19;20139;-77
2022/12/04 08:53:54;;;;;;;14.67;8.17;;;6.10;99.90;;;;;;7395911;19;20153;-79
2022/12/04 08:56:20;;;;;;;14.17;8.50;;;6.10;99.90;;;;;;7394429;19;20155;-81
2022/12/04 08:58:54;;;;;;;16.43;8.43;;;5.80;99.90;;;;;;7393965;19;20169;-82
2022/12/04 09:01:20;;;;;;;15.43;9.00;;;5.80;99.90;;;;;;7399333;19;20133;-79
2022/12/04 09:03:46;;;;;;;15.63;9.17;;;5.90;99.90;;;;;;7394395;19;20130;-78
2022/12/04 09:06:13;;;;;;;14.37;8.90;;;6.00;99.90;;;;;;7398270;19;20134;-78
2022/12/04 09:08:40;;;;;;;14.57;8.50;;;6.00;99.90;;;;;;7397154;19;20131;-79
2022/12/04 09:11:11;;;;;;;16.13;9.60;;;6.00;99.90;;;;;;7394153;19;20214;-78
2022/12/04 09:13:38;;;;;;;15.73;8.97;;;6.10;99.90;;;;;;7395215;19;20595;-79
2022/12/04 09:16:08;;;;;;;13.60;8.60;;;6.10;99.90;;;;;;7396660;19;20151;-83
2022/12/04 09:18:35;;;;;;;16.30;9.30;;;6.20;99.90;;;;;;7396130;19;20134;-81
2022/12/04 09:21:04;;;;;;;16.47;9.20;;;6.20;99.90;;;;;;7397695;19;20134;-78
2022/12/04 09:23:30;;;;;;;14.63;8.70;;;6.20;99.90;;;;;;7399774;19;20142;-79
2022/12/04 09:25:56;;;;;;;16.23;8.83;;;6.10;99.90;;;;;;7396610;19;20475;-80
2022/12/04 09:28:21;;;;;;;15.77;9.13;;;6.10;99.90;;;;;;7396648;19;20654;-79
2022/12/04 09:31:01;;;;;;;14.10;8.90;;;5.80;99.90;;;;;;7395641;19;20163;-80
2022/12/04 09:33:27;;;;;;;17.20;8.90;;;5.50;99.90;;;;;;7397891;19;20139;-80
2022/12/04 09:35:53;;;;;;;14.17;9.03;;;5.80;99.90;;;;;;7395672;19;20143;-80
2022/12/04 09:38:19;;;;;;;16.77;10.07;;;6.00;99.90;;;;;;7394033;19;20153;-80
2022/12/04 09:41:04;;;;;;;15.40;9.40;;;6.10;99.90;;;;;;7397048;19;20154;-78
2022/12/04 09:43:59;;;;;;;14.73;9.10;;;6.00;99.90;;;;;;7396124;19;20175;-78
2022/12/04 09:46:33;;;;;;;15.70;9.03;;;6.10;99.90;;;;;;7396307;19;20138;-79
2022/12/04 09:49:05;;;;;;;15.40;8.43;;;6.10;99.90;;;;;;7393677;19;20255;-78
2022/12/04 09:51:34;;;;;;;16.53;9.33;;;6.10;99.90;;;;;;7394622;19;20137;-77
2022/12/04 09:54:09;;;;;;;16.53;9.77;;;6.20;99.90;;;;;;7396111;19;20151;-77
2022/12/04 09:56:35;;;;;;;15.83;9.80;;;6.30;99.90;;;;;;7394693;19;20206;-77
2022/12/04 09:59:10;;;;;;;18.20;10.17;;;6.30;99.90;;;;;;7394360;19;20131;-76
2022/12/04 10:02:21;;;;;;;18.17;10.03;;;6.10;99.90;;;;;;7393046;19;20610;-78
2022/12/04 10:04:47;;;;;;;17.63;10.30;;;6.10;99.90;;;;;;7391224;19;20154;-79
2022/12/04 10:07:21;;;;;;;17.30;9.77;;;6.20;99.90;;;;;;7394077;19;20527;-79
2022/12/04 10:10:06;;;;;;;15.37;9.70;;;6.20;99.90;;;;;;7393478;19;20153;-79
2022/12/04 10:13:02;;;;;;;17.53;10.10;;;6.20;99.90;;;;;;7395780;19;20138;-79
2022/12/04 10:15:56;;;;;;;17.67;11.30;;;6.00;99.90;;;;;;7393214;19;20178;-78
2022/12/04 10:18:22;;;;;;;19.70;11.03;;;6.20;99.90;;;;;;7394829;19;20614;-79
2022/12/04 10:21:10;;;;;;;17.13;11.03;;;6.20;99.90;;;;;;7394028;19;20139;-77
2022/12/04 10:23:49;;;;;;;18.67;10.20;;;6.20;99.90;;;;;;7394264;19;20150;-77
2022/12/04 10:26:19;;;;;;;18.93;11.13;;;6.20;99.90;;;;;;7397006;19;20138;-79
2022/12/04 10:29:03;;;;;;;18.97;10.73;;;6.20;99.90;;;;;;7394332;19;20487;-81
2022/12/04 10:31:31;;;;;;;19.97;11.63;;;6.20;99.90;;;;;;7397207;19;20155;-79
2022/12/04 10:34:26;;;;;;;20.27;11.53;;;6.10;99.90;;;;;;7396450;19;20143;-79
2022/12/04 10:36:59;;;;;;;15.57;9.90;;;6.20;99.90;;;;;;7394554;19;20150;-80
2022/12/04 10:39:35;;;;;;;16.53;9.70;;;6.20;99.90;;;;;;7394766;19;20209;-79
2022/12/04 10:42:24;;;;;;;18.63;10.53;;;6.20;99.90;;;;;;7395404;19;20166;-78
2022/12/04 10:44:50;;;;;;;17.87;10.07;;;6.30;99.90;;;;;;7391500;19;20209;-80
2022/12/04 10:47:16;;;;;;;21.00;10.83;;;6.30;99.90;;;;;;7393206;19;20144;-80
2022/12/04 10:49:42;;;;;;;16.47;9.87;;;5.70;99.90;;;;;;7393653;19;21151;-78
2022/12/04 10:52:12;;;;;;;15.27;9.77;;;5.50;99.90;;;;;;7394324;19;20216;-80
2022/12/04 10:54:47;;;;;;;17.93;10.20;;;5.40;99.90;;;;;;7397179;19;20146;-80
2022/12/04 10:57:13;;;;;;;19.33;10.07;;;5.70;99.90;;;;;;7396856;19;20258;-80
2022/12/04 10:59:54;;;;;;;16.83;10.07;;;5.80;99.90;;;;;;7395373;19;20190;-81
2022/12/04 11:02:32;;;;;;;19.47;10.77;;;5.80;99.90;;;;;;7395491;19;20142;-79
2022/12/04 11:05:00;;;;;;;18.93;10.27;;;6.00;99.90;;;;;;7393028;19;20161;-80
2022/12/04 11:07:33;;;;;;;17.73;10.37;;;6.10;99.90;;;;;;7393610;19;20583;-80
2022/12/04 11:10:05;;;;;;;19.80;11.07;;;6.20;99.90;;;;;;7391563;19;20134;-80
2022/12/04 11:12:32;;;;;;;21.37;10.63;;;6.20;99.90;;;;;;7394299;19;20161;-79
2022/12/04 11:15:06;;;;;;;17.27;9.87;;;6.10;99.90;;;;;;7394791;19;20146;-79
2022/12/04 11:17:32;;;;;;;19.23;9.63;;;5.70;99.90;;;;;;7394207;19;20126;-78
2022/12/04 11:20:06;;;;;;;18.70;10.23;;;5.90;99.90;;;;;;7393400;19;20143;-79
2022/12/04 11:22:45;;;;;;;17.97;9.37;;;6.00;99.90;;;;;;7391996;19;20142;-80
2022/12/04 11:25:17;;;;;;;18.90;10.23;;;6.20;99.90;;;;;;7392391;19;20176;-79
2022/12/04 11:27:46;;;;;;;15.40;9.03;;;6.20;99.90;;;;;;7393295;19;20215;-82
2022/12/04 11:30:17;;;;;;;19.20;10.30;;;6.20;99.90;;;;;;7393557;19;20134;-80
2022/12/04 11:32:44;;;;;;;14.47;9.13;;;6.20;99.90;;;;;;7396897;19;20155;-85
2022/12/04 11:35:16;;;;;;;15.33;9.23;;;6.20;99.90;;;;;;7396438;19;20640;-84
2022/12/04 11:37:55;;;;;;;15.53;9.13;;;5.80;99.90;;;;;;7395161;19;20150;-87
2022/12/04 11:40:21;;;;;;;17.60;9.70;;;6.00;99.90;;;;;;7398379;19;20185;-84
2022/12/04 11:43:12;;;;;;;19.20;10.30;;;6.00;99.90;;;;;;7392267;19;20127;-80
2022/12/04 11:45:38;;;;;;;22.10;11.03;;;6.10;99.90;;;;;;7392379;19;20134;-83
2022/12/04 11:48:14;;;;;;;18.73;10.00;;;6.20;99.90;;;;;;7391893;19;20138;-83
2022/12/04 11:50:48;;;;;;;18.40;9.03;;;6.20;99.90;;;;;;7393910;19;20180;-87
2022/12/04 11:53:42;;;;;;;16.20;9.20;;;6.20;99.90;;;;;;7399782;19;20570;-87
2022/12/04 11:56:32;;;;;;;18.27;9.63;;;6.30;99.90;;;;;;7393114;19;20193;-86
2022/12/04 11:59:06;;;;;;;18.97;9.07;;;6.30;99.90;;;;;;7394893;19;20150;-85
2022/12/04 12:01:50;;;;;;;22.17;10.57;;;6.20;99.90;;;;;;7397597;19;20129;-89
2022/12/04 12:04:34;;;;;;;17.60;9.67;;;6.20;99.90;;;;;;7395259;19;20134;-88
2022/12/04 12:07:15;;;;;;;17.20;8.87;;;6.20;99.90;;;;;;7393871;19;20151;-89
2022/12/04 12:10:03;;;;;;;15.63;9.37;;;6.30;99.90;;;;;;7394753;19;20218;-86
2022/12/04 12:12:29;;;;;;;17.30;9.37;;;6.10;99.90;;;;;;7396456;19;20613;-86
2022/12/04 12:15:11;;;;;;;14.90;8.93;;;6.20;99.90;;;;;;7394184;19;20143;-86
2022/12/04 12:18:06;;;;;;;18.60;9.07;;;6.20;99.90;;;;;;7395460;19;20137;-85
2022/12/04 12:20:41;;;;;;;13.70;8.37;;;6.30;99.90;;;;;;7394714;19;20146;-87
2022/12/04 12:23:15;;;;;;;19.63;9.10;;;6.30;99.90;;;;;;7396409;19;20130;-89
2022/12/04 12:26:07;;;;;;;15.27;8.30;;;6.30;99.90;;;;;;7397097;19;20626;-91
2022/12/04 12:28:51;;;;;;;18.13;9.83;;;6.20;99.90;;;;;;7395146;19;20138;-82
2022/12/04 12:31:33;;;;;;;15.73;8.70;;;6.30;99.90;;;;;;7390765;19;20613;-79
2022/12/04 12:34:46;;;;;;;18.00;9.63;;;6.30;99.90;;;;;;7390779;19;20135;-78
2022/12/04 12:37:38;;;;;;;17.13;9.63;;;6.20;99.90;;;;;;7386640;19;20635;-78
2022/12/04 12:40:27;;;;;;;13.77;8.60;;;6.30;99.90;;;;;;7382674;19;20151;-77
2022/12/04 12:43:26;;;;;;;16.30;8.83;;;6.30;99.90;;;;;;7386342;19;20170;-77
2022/12/04 12:45:57;;;;;;;17.23;8.80;;;6.30;99.90;;;;;;7385848;19;20166;-77
2022/12/04 12:48:58;;;;;;;17.53;9.63;;;6.20;99.90;;;;;;7387567;19;20127;-77
2022/12/04 12:51:42;;;;;;;18.43;10.27;;;6.20;99.90;;;;;;7388441;19;20138;-77
2022/12/04 12:54:22;;;;;;;17.57;9.23;;;6.20;99.90;;;;;;7385701;19;20131;-78
2022/12/04 12:56:54;;;;;;;15.23;9.10;;;6.20;99.90;;;;;;7390195;19;20579;-78
2022/12/04 12:59:24;;;;;;;19.53;10.27;;;6.20;99.90;;;;;;7390260;19;20186;-77
2022/12/04 13:01:56;;;;;;;16.97;10.30;;;6.20;99.90;;;;;;7390490;19;20135;-79
2022/12/04 13:04:32;;;;;;;18.23;10.63;;;6.20;99.90;;;;;;7389081;19;20138;-78
2022/12/04 13:07:16;;;;;;;17.87;10.13;;;6.20;99.90;;;;;;7390569;19;20606;-79
2022/12/04 13:10:03;;;;;;;15.87;8.83;;;6.30;99.90;;;;;;7391488;19;20138;-78
2022/12/04 13:12:42;;;;;;;16.37;9.37;;;6.30;99.90;;;;;;7387639;19;20155;-79
2022/12/04 13:15:16;;;;;;;20.07;10.37;;;6.30;99.90;;;;;;7386890;19;20142;-80
2022/12/04 13:17:44;;;;;;;17.17;8.93;;;6.40;99.90;;;;;;7378918;19;20153;-79
2022/12/04 13:20:32;;;;;;;17.10;9.63;;;6.30;99.90;;;;;;7391253;19;20127;-79